createdAt,value
2018-03-26T00:00:50.651Z,11.07
2018-03-26T00:03:18.918Z,11.08
2018-03-26T00:05:47.254Z,11.04
2018-03-26T00:08:15.543Z,11.08
2018-03-26T00:10:44.082Z,11.02
2018-03-26T00:13:12.684Z,11.00
2018-03-26T00:15:41.095Z,10.93
2018-03-26T00:18:10.229Z,10.95
2018-03-26T00:20:38.690Z,11.02
2018-03-26T00:23:06.995Z,11.01
2018-03-26T00:25:35.395Z,11.08
2018-03-26T00:28:04.083Z,11.14
2018-03-26T00:30:32.487Z,11.12
2018-03-26T00:33:00.910Z,11.11
2018-03-26T00:35:29.185Z,11.16
2018-03-26T00:37:57.739Z,11.08
2018-03-26T00:40:26.919Z,10.82
2018-03-26T00:42:55.974Z,10.69
2018-03-26T00:45:24.289Z,10.48
2018-03-26T00:47:53.355Z,10.35
2018-03-26T00:50:21.800Z,10.25
2018-03-26T00:52:50.140Z,10.23
2018-03-26T00:55:20.570Z,10.26
2018-03-26T00:57:48.972Z,10.25
2018-03-26T01:00:17.414Z,10.26
2018-03-26T01:02:45.992Z,10.28
2018-03-26T01:05:14.576Z,10.31
2018-03-26T01:07:42.998Z,10.30
2018-03-26T01:10:11.276Z,10.11
2018-03-26T01:12:39.579Z,10.07
2018-03-26T01:15:07.954Z,9.98
2018-03-26T01:17:36.274Z,10.00
2018-03-26T01:20:04.772Z,10.06
2018-03-26T01:22:33.982Z,10.03
2018-03-26T01:25:03.187Z,10.09
2018-03-26T01:27:31.699Z,10.16
2018-03-26T01:30:00.079Z,10.19
2018-03-26T01:32:28.330Z,10.13
2018-03-26T01:34:56.682Z,10.12
2018-03-26T01:37:25.771Z,10.20
2018-03-26T01:39:54.954Z,10.28
2018-03-26T01:42:23.255Z,10.23
2018-03-26T01:44:52.345Z,10.25
2018-03-26T01:47:21.598Z,10.37
2018-03-26T01:49:50.015Z,10.40
2018-03-26T01:52:18.329Z,10.22
2018-03-26T01:54:46.750Z,10.17
2018-03-26T01:57:15.202Z,10.11
2018-03-26T01:59:43.716Z,9.85
2018-03-26T02:02:12.980Z,9.84
2018-03-26T02:04:41.275Z,9.82
2018-03-26T02:07:09.537Z,9.87
2018-03-26T02:09:37.909Z,9.91
2018-03-26T02:12:06.192Z,9.92
2018-03-26T02:14:34.502Z,10.00
2018-03-26T02:17:02.847Z,10.04
2018-03-26T02:19:31.311Z,10.08
2018-03-26T02:21:59.911Z,10.05
2018-03-26T02:24:28.335Z,9.98
2018-03-26T02:26:56.702Z,9.98
2018-03-26T02:29:24.996Z,9.91
2018-03-26T02:31:54.019Z,9.88
2018-03-26T02:34:22.352Z,9.98
2018-03-26T02:36:50.638Z,9.97
2018-03-26T02:39:19.832Z,9.99
2018-03-26T02:41:48.152Z,10.06
2018-03-26T02:44:16.736Z,9.97
2018-03-26T02:46:45.336Z,9.96
2018-03-26T02:49:13.748Z,10.01
2018-03-26T02:51:43.180Z,9.95
2018-03-26T02:54:12.255Z,9.88
2018-03-26T02:56:40.547Z,9.83
2018-03-26T02:59:08.862Z,9.80
2018-03-26T03:01:37.396Z,9.81
2018-03-26T03:04:06.806Z,9.92
2018-03-26T03:06:35.288Z,9.97
2018-03-26T03:09:04.660Z,10.04
2018-03-26T03:11:33.030Z,9.96
2018-03-26T03:14:01.546Z,9.93
2018-03-26T03:16:30.137Z,9.98
2018-03-26T03:18:58.524Z,9.92
2018-03-26T03:21:26.806Z,9.79
2018-03-26T03:23:56.229Z,9.68
2018-03-26T03:26:24.929Z,9.54
2018-03-26T03:28:54.222Z,9.42
2018-03-26T03:31:22.518Z,9.50
2018-03-26T03:33:50.921Z,9.57
2018-03-26T03:36:20.092Z,9.55
2018-03-26T03:38:48.418Z,9.54
2018-03-26T03:41:16.755Z,9.42
2018-03-26T03:43:45.137Z,9.44
2018-03-26T03:46:13.675Z,9.51
2018-03-26T03:48:42.171Z,9.59
2018-03-26T03:51:10.497Z,9.75
2018-03-26T03:53:39.280Z,9.86
2018-03-26T03:56:08.475Z,9.84
2018-03-26T03:58:37.791Z,9.88
2018-03-26T04:01:06.301Z,9.90
2018-03-26T04:03:34.585Z,9.78
2018-03-26T04:06:02.853Z,9.84
2018-03-26T04:08:31.386Z,9.88
2018-03-26T04:11:00.480Z,9.91
2018-03-26T04:13:29.086Z,9.89
2018-03-26T04:15:57.386Z,9.75
2018-03-26T04:18:25.970Z,9.66
2018-03-26T04:20:54.341Z,9.68
2018-03-26T04:23:22.758Z,9.74
2018-03-26T04:25:51.145Z,9.78
2018-03-26T04:28:19.645Z,9.75
2018-03-26T04:30:48.895Z,9.77
2018-03-26T04:33:17.505Z,9.76
2018-03-26T04:35:45.826Z,9.73
2018-03-26T04:38:14.187Z,9.71
2018-03-26T04:40:43.385Z,9.70
2018-03-26T04:43:12.437Z,9.77
2018-03-26T04:45:40.747Z,9.64
2018-03-26T04:48:09.137Z,9.53
2018-03-26T04:50:38.283Z,9.58
2018-03-26T04:53:06.572Z,9.59
2018-03-26T04:55:34.910Z,9.60
2018-03-26T04:58:03.207Z,9.50
2018-03-26T05:00:31.958Z,9.59
2018-03-26T05:03:01.175Z,9.56
2018-03-26T05:05:29.716Z,9.55
2018-03-26T05:07:58.120Z,9.57
2018-03-26T05:10:27.217Z,9.58
2018-03-26T05:12:55.561Z,9.32
2018-03-26T05:15:25.432Z,9.37
2018-03-26T05:17:53.746Z,9.37
2018-03-26T05:20:22.155Z,9.42
2018-03-26T05:22:52.048Z,9.40
2018-03-26T05:25:20.366Z,9.59
2018-03-26T05:27:48.677Z,9.52
2018-03-26T05:30:16.962Z,9.60
2018-03-26T05:32:45.307Z,9.60
2018-03-26T05:35:13.741Z,9.52
2018-03-26T05:37:42.143Z,9.54
2018-03-26T05:40:10.446Z,9.58
2018-03-26T05:42:38.726Z,9.56
2018-03-26T05:45:07.243Z,9.40
2018-03-26T05:47:35.512Z,9.34
2018-03-26T05:50:04.676Z,9.41
2018-03-26T05:52:34.227Z,9.35
2018-03-26T05:55:02.571Z,9.19
2018-03-26T05:57:31.095Z,9.15
2018-03-26T06:00:00.138Z,9.14
2018-03-26T06:02:28.522Z,9.16
2018-03-26T06:04:57.101Z,9.22
2018-03-26T06:07:25.527Z,9.24
2018-03-26T06:09:54.693Z,9.13
2018-03-26T06:12:23.063Z,9.11
2018-03-26T06:14:51.400Z,9.21
2018-03-26T06:17:20.607Z,9.33
2018-03-26T06:19:48.856Z,9.42
2018-03-26T06:22:18.031Z,9.51
2018-03-26T06:24:46.452Z,9.56
2018-03-26T06:27:14.869Z,9.68
2018-03-26T06:29:43.445Z,9.68
2018-03-26T06:32:11.952Z,9.70
2018-03-26T06:34:40.375Z,9.65
2018-03-26T06:37:14.326Z,9.55
2018-03-26T06:39:42.785Z,9.43
2018-03-26T06:42:11.218Z,9.37
2018-03-26T06:44:39.751Z,9.41
2018-03-26T06:47:08.235Z,9.38
2018-03-26T06:49:36.671Z,9.36
2018-03-26T06:52:05.778Z,9.26
2018-03-26T06:54:34.082Z,9.27
2018-03-26T06:57:02.592Z,9.35
2018-03-26T06:59:31.163Z,9.38
2018-03-26T07:01:59.571Z,9.28
2018-03-26T07:04:27.878Z,9.24
2018-03-26T07:06:57.190Z,9.25
2018-03-26T07:09:25.891Z,8.93
2018-03-26T07:11:55.282Z,8.84
2018-03-26T07:14:23.722Z,8.79
2018-03-26T07:16:52.825Z,8.98
2018-03-26T07:19:21.954Z,8.96
2018-03-26T07:21:50.521Z,9.02
2018-03-26T07:24:18.825Z,8.95
2018-03-26T07:26:47.123Z,8.89
2018-03-26T07:29:15.443Z,8.99
2018-03-26T07:31:44.558Z,9.20
2018-03-26T07:34:13.032Z,9.31
2018-03-26T07:36:41.337Z,9.37
2018-03-26T07:39:10.956Z,9.47
2018-03-26T07:41:39.256Z,9.49
2018-03-26T07:44:08.484Z,9.54
2018-03-26T07:46:36.818Z,9.63
2018-03-26T07:49:05.664Z,9.64
2018-03-26T07:51:34.397Z,9.57
2018-03-26T07:54:02.724Z,9.53
2018-03-26T07:56:31.163Z,9.51
2018-03-26T07:58:59.464Z,9.80
2018-03-26T08:01:29.033Z,10.02
2018-03-26T08:03:57.407Z,10.21
2018-03-26T08:06:25.839Z,10.43
2018-03-26T08:08:54.184Z,10.58
2018-03-26T08:11:24.444Z,10.79
2018-03-26T08:13:53.218Z,10.80
2018-03-26T08:16:22.637Z,10.73
2018-03-26T08:18:50.989Z,10.93
2018-03-26T08:21:20.207Z,11.09
2018-03-26T08:23:48.735Z,10.86
2018-03-26T08:26:17.318Z,10.84
2018-03-26T08:28:45.836Z,10.90
2018-03-26T08:31:15.093Z,10.96
2018-03-26T08:33:43.413Z,11.01
2018-03-26T08:36:11.742Z,11.05
2018-03-26T08:38:40.208Z,11.00
2018-03-26T08:41:08.503Z,11.06
2018-03-26T08:43:38.194Z,11.23
2018-03-26T08:46:06.496Z,11.17
2018-03-26T08:48:34.818Z,10.98
2018-03-26T08:51:03.292Z,10.76
2018-03-26T08:53:32.586Z,10.88
2018-03-26T08:56:01.303Z,11.00
2018-03-26T08:58:29.925Z,10.84
2018-03-26T09:00:58.578Z,10.99
2018-03-26T09:03:26.962Z,11.09
2018-03-26T09:05:55.328Z,11.27
2018-03-26T09:08:23.666Z,11.46
2018-03-26T09:10:52.895Z,11.59
2018-03-26T09:13:21.202Z,11.68
2018-03-26T09:15:49.712Z,11.85
2018-03-26T09:18:18.324Z,11.84
2018-03-26T09:20:46.788Z,11.86
2018-03-26T09:23:16.100Z,11.83
2018-03-26T09:25:45.144Z,11.61
2018-03-26T09:28:13.467Z,11.71
2018-03-26T09:30:42.576Z,11.67
2018-03-26T09:33:10.981Z,11.82
2018-03-26T09:35:39.544Z,12.01
2018-03-26T09:38:08.181Z,12.08
2018-03-26T09:40:36.550Z,11.66
2018-03-26T09:43:05.692Z,11.24
2018-03-26T09:45:34.046Z,11.15
2018-03-26T09:48:03.177Z,11.07
2018-03-26T09:50:31.482Z,11.12
2018-03-26T09:52:59.845Z,11.23
2018-03-26T09:55:28.123Z,11.34
2018-03-26T09:57:56.478Z,11.39
2018-03-26T10:00:30.513Z,11.53
2018-03-26T10:02:58.864Z,11.23
2018-03-26T10:05:27.322Z,11.05
2018-03-26T10:07:56.434Z,10.83
2018-03-26T10:10:25.678Z,10.99
2018-03-26T10:12:54.348Z,11.04
2018-03-26T10:15:22.748Z,11.24
2018-03-26T10:17:51.102Z,11.46
2018-03-26T10:20:19.558Z,11.73
2018-03-26T10:22:48.200Z,11.94
2018-03-26T10:25:16.677Z,11.99
2018-03-26T10:27:45.958Z,12.13
2018-03-26T10:30:14.252Z,12.02
2018-03-26T10:32:42.607Z,11.69
2018-03-26T10:35:11.050Z,11.88
2018-03-26T10:37:40.352Z,12.11
2018-03-26T10:40:09.509Z,12.05
2018-03-26T10:42:38.112Z,12.00
2018-03-26T10:45:06.503Z,12.08
2018-03-26T10:47:35.704Z,12.26
2018-03-26T10:50:04.840Z,12.15
2018-03-26T10:52:33.144Z,12.09
2018-03-26T10:55:01.545Z,11.95
2018-03-26T10:57:30.678Z,11.86
2018-03-26T10:59:59.024Z,11.93
2018-03-26T11:02:28.254Z,12.00
2018-03-26T11:04:56.627Z,12.32
2018-03-26T11:07:25.105Z,12.56
2018-03-26T11:09:53.730Z,12.81
2018-03-26T11:12:22.307Z,12.97
2018-03-26T11:14:50.650Z,12.92
2018-03-26T11:17:19.077Z,12.97
2018-03-26T11:19:47.559Z,13.04
2018-03-26T11:22:17.570Z,12.78
2018-03-26T11:24:46.153Z,12.45
2018-03-26T11:27:14.514Z,12.69
2018-03-26T11:29:42.867Z,12.80
2018-03-26T11:32:11.204Z,13.00
2018-03-26T11:34:39.660Z,13.19
2018-03-26T11:37:08.282Z,13.23
2018-03-26T11:39:37.553Z,13.17
2018-03-26T11:42:06.110Z,12.83
2018-03-26T11:44:34.568Z,13.07
2018-03-26T11:47:03.133Z,12.96
2018-03-26T11:49:32.685Z,12.99
2018-03-26T11:52:01.023Z,12.59
2018-03-26T11:54:29.311Z,12.48
2018-03-26T11:56:57.793Z,12.76
2018-03-26T11:59:26.197Z,13.17
2018-03-26T12:01:54.839Z,13.22
2018-03-26T12:04:23.960Z,13.05
2018-03-26T12:06:52.426Z,13.04
2018-03-26T12:09:20.798Z,13.04
2018-03-26T12:11:49.337Z,13.04
2018-03-26T12:14:18.669Z,13.40
2018-03-26T12:16:47.043Z,13.31
2018-03-26T12:19:16.163Z,12.87
2018-03-26T12:21:44.691Z,12.90
2018-03-26T12:24:31.234Z,12.91
2018-03-26T12:27:00.489Z,13.20
2018-03-26T12:29:46.662Z,13.32
2018-03-26T12:32:14.979Z,13.59
2018-03-26T12:35:01.338Z,14.05
2018-03-26T12:37:30.024Z,14.43
2018-03-26T12:39:58.545Z,14.05
2018-03-26T12:42:27.950Z,14.02
2018-03-26T12:45:14.217Z,14.28
2018-03-26T12:47:42.534Z,14.60
2018-03-26T12:50:11.255Z,14.45
2018-03-26T12:52:50.317Z,14.12
2018-03-26T12:55:18.656Z,13.91
2018-03-26T12:58:04.979Z,14.18
2018-03-26T13:00:33.419Z,14.71
2018-03-26T13:03:01.841Z,14.83
2018-03-26T13:05:30.250Z,15.00
2018-03-26T13:07:58.567Z,15.02
2018-03-26T13:10:27.253Z,15.02
2018-03-26T13:12:56.655Z,14.90
2018-03-26T13:15:24.967Z,14.76
2018-03-26T13:17:53.309Z,14.77
2018-03-26T13:20:21.848Z,14.50
2018-03-26T13:22:50.249Z,14.49
2018-03-26T13:25:19.363Z,14.52
2018-03-26T13:27:47.719Z,14.65
2018-03-26T13:30:16.960Z,14.66
2018-03-26T13:32:45.509Z,14.69
2018-03-26T13:35:15.761Z,14.87
2018-03-26T13:37:44.121Z,15.24
2018-03-26T13:40:12.444Z,15.06
2018-03-26T13:42:40.803Z,14.68
2018-03-26T13:45:09.299Z,13.73
2018-03-26T13:47:37.650Z,13.38
2018-03-26T13:50:06.033Z,13.52
2018-03-26T13:52:35.599Z,13.85
2018-03-26T13:55:04.819Z,14.23
2018-03-26T13:57:33.140Z,14.44
2018-03-26T14:00:01.504Z,14.44
2018-03-26T14:02:30.046Z,14.27
2018-03-26T14:04:59.614Z,13.97
2018-03-26T14:07:28.037Z,13.97
2018-03-26T14:10:14.749Z,14.12
2018-03-26T14:13:00.948Z,14.26
2018-03-26T14:15:47.104Z,13.98
2018-03-26T14:18:15.516Z,13.14
2018-03-26T14:20:44.324Z,13.35
2018-03-26T14:23:12.650Z,13.64
2018-03-26T14:25:41.123Z,13.23
2018-03-26T14:28:11.417Z,12.82
2018-03-26T14:30:39.779Z,13.05
2018-03-26T14:33:08.259Z,13.55
2018-03-26T14:35:44.213Z,14.15
2018-03-26T14:38:12.716Z,14.86
2018-03-26T14:40:41.411Z,15.35
2018-03-26T14:43:10.010Z,15.32
2018-03-26T14:45:39.476Z,15.83
2018-03-26T14:48:07.957Z,15.22
2018-03-26T14:50:36.364Z,15.87
2018-03-26T14:53:04.746Z,17.07
2018-03-26T14:55:33.075Z,16.28
2018-03-26T14:58:01.499Z,16.45
2018-03-26T15:00:30.260Z,16.95
2018-03-26T15:02:58.663Z,17.42
2018-03-26T15:05:28.138Z,18.00
2018-03-26T15:07:56.692Z,18.24
2018-03-26T15:10:25.196Z,17.02
2018-03-26T15:12:53.655Z,16.35
2018-03-26T15:15:22.904Z,15.46
2018-03-26T15:17:51.245Z,15.13
2018-03-26T15:20:19.630Z,15.22
2018-03-26T15:22:48.001Z,16.16
2018-03-26T15:25:16.554Z,15.68
2018-03-26T15:27:45.707Z,15.22
2018-03-26T15:30:14.103Z,15.13
2018-03-26T15:32:42.545Z,15.04
2018-03-26T15:35:10.844Z,15.03
2018-03-26T15:37:40.704Z,16.02
2018-03-26T15:40:10.056Z,15.52
2018-03-26T15:42:38.414Z,14.56
2018-03-26T15:45:06.725Z,14.03
2018-03-26T15:47:35.043Z,13.77
2018-03-26T15:50:04.137Z,13.73
2018-03-26T15:52:33.378Z,13.62
2018-03-26T15:55:01.834Z,14.58
2018-03-26T15:57:30.176Z,15.12
2018-03-26T15:59:58.616Z,14.95
2018-03-26T16:02:32.378Z,14.73
2018-03-26T16:05:01.494Z,14.43
2018-03-26T16:07:29.906Z,14.20
2018-03-26T16:09:58.561Z,13.94
2018-03-26T16:12:27.001Z,13.81
2018-03-26T16:14:56.315Z,13.64
2018-03-26T16:17:26.611Z,13.49
2018-03-26T16:19:54.967Z,13.41
2018-03-26T16:22:23.806Z,13.39
2018-03-26T16:24:53.209Z,13.34
2018-03-26T16:27:21.618Z,13.20
2018-03-26T16:29:50.104Z,13.01
2018-03-26T16:32:18.453Z,12.93
2018-03-26T16:34:47.652Z,12.86
2018-03-26T16:37:17.196Z,12.79
2018-03-26T16:39:45.543Z,12.83
2018-03-26T16:42:26.364Z,12.51
2018-03-26T16:44:54.746Z,12.34
2018-03-26T16:47:23.777Z,12.30
2018-03-26T16:49:52.121Z,12.38
2018-03-26T16:52:20.569Z,12.38
2018-03-26T16:54:48.934Z,12.53
2018-03-26T16:57:17.323Z,12.62
2018-03-26T16:59:45.650Z,12.75
2018-03-26T17:02:14.216Z,12.69
2018-03-26T17:04:42.645Z,12.59
2018-03-26T17:07:11.076Z,12.49
2018-03-26T17:09:39.616Z,12.13
2018-03-26T17:12:08.256Z,12.07
2018-03-26T17:14:36.652Z,12.11
2018-03-26T17:17:05.791Z,12.21
2018-03-26T17:19:35.221Z,12.03
2018-03-26T17:22:03.645Z,12.10
2018-03-26T17:24:32.579Z,12.10
2018-03-26T17:27:01.001Z,12.12
2018-03-26T17:29:29.397Z,12.15
2018-03-26T17:31:57.897Z,12.24
2018-03-26T17:34:26.680Z,12.23
2018-03-26T17:36:56.432Z,12.35
2018-03-26T17:39:25.056Z,12.40
2018-03-26T17:41:53.446Z,12.33
2018-03-26T17:44:22.030Z,12.27
2018-03-26T17:46:50.753Z,12.23
2018-03-26T17:49:19.102Z,12.24
2018-03-26T17:51:48.586Z,12.20
2018-03-26T17:54:18.074Z,12.11
2018-03-26T17:56:46.556Z,12.13
2018-03-26T17:59:15.098Z,12.22
2018-03-26T18:01:44.420Z,12.27
2018-03-26T18:04:13.754Z,12.37
2018-03-26T18:06:42.303Z,12.38
2018-03-26T18:09:11.735Z,12.37
2018-03-26T18:11:40.107Z,12.34
2018-03-26T18:14:08.598Z,12.43
2018-03-26T18:16:37.156Z,12.40
2018-03-26T18:19:06.673Z,12.41
2018-03-26T18:21:35.251Z,12.42
2018-03-26T18:24:04.556Z,12.41
2018-03-26T18:26:33.170Z,12.41
2018-03-26T18:29:01.645Z,12.41
2018-03-26T18:31:30.023Z,12.41
2018-03-26T18:33:58.626Z,12.41
2018-03-26T18:36:27.111Z,12.44
2018-03-26T18:38:55.439Z,12.48
2018-03-26T18:41:24.041Z,12.48
2018-03-26T18:43:52.465Z,12.52
2018-03-26T18:46:21.108Z,12.53
2018-03-26T18:48:49.531Z,12.53
2018-03-26T18:51:17.956Z,12.46
2018-03-26T18:53:46.854Z,12.33
2018-03-26T18:56:15.214Z,12.30
2018-03-26T18:58:43.660Z,12.32
2018-03-26T19:01:12.134Z,12.34
2018-03-26T19:03:40.721Z,12.40
2018-03-26T19:06:10.674Z,12.36
2018-03-26T19:08:39.114Z,12.35
2018-03-26T19:11:07.508Z,12.40
2018-03-26T19:13:35.933Z,12.36
2018-03-26T19:16:04.614Z,12.36
2018-03-26T19:18:33.251Z,12.34
2018-03-26T19:21:01.673Z,12.32
2018-03-26T19:23:30.229Z,12.35
2018-03-26T19:25:59.757Z,12.40
2018-03-26T19:28:28.373Z,12.39
2018-03-26T19:30:56.830Z,12.38
2018-03-26T19:33:25.486Z,12.38
2018-03-26T19:35:53.861Z,12.40
2018-03-26T19:38:23.096Z,12.35
2018-03-26T19:40:51.457Z,12.37
2018-03-26T19:43:19.848Z,12.34
2018-03-26T19:45:48.530Z,12.32
2018-03-26T19:48:16.983Z,12.29
2018-03-26T19:50:46.272Z,12.32
2018-03-26T19:53:14.670Z,12.35
2018-03-26T19:55:43.848Z,12.29
2018-03-26T19:58:12.235Z,12.23
2018-03-26T20:00:40.709Z,12.22
2018-03-26T20:03:10.032Z,12.20
2018-03-26T20:05:38.592Z,12.22
2018-03-26T20:08:07.101Z,12.19
2018-03-26T20:10:35.421Z,12.12
2018-03-26T20:13:03.986Z,12.05
2018-03-26T20:15:32.572Z,11.94
2018-03-26T20:18:00.886Z,11.88
2018-03-26T20:20:29.736Z,11.83
2018-03-26T20:22:59.082Z,11.58
2018-03-26T20:25:27.502Z,11.32
2018-03-26T20:27:57.626Z,11.16
2018-03-26T20:30:26.041Z,10.86
2018-03-26T20:32:54.597Z,11.05
2018-03-26T20:35:22.964Z,11.05
2018-03-26T20:37:51.521Z,10.95
2018-03-26T20:40:20.815Z,10.41
2018-03-26T20:42:50.055Z,10.51
2018-03-26T20:45:18.377Z,10.23
2018-03-26T20:47:46.789Z,9.76
2018-03-26T20:50:15.143Z,9.45
2018-03-26T20:52:43.572Z,9.00
2018-03-26T20:55:12.099Z,8.91
2018-03-26T20:57:41.305Z,8.82
2018-03-26T21:00:10.731Z,8.65
2018-03-26T21:02:39.647Z,8.73
2018-03-26T21:05:08.112Z,8.59
2018-03-26T21:07:36.550Z,8.90
2018-03-26T21:10:04.875Z,9.10
2018-03-26T21:12:33.364Z,9.39
2018-03-26T21:17:37.512Z,9.51
2018-03-26T21:20:05.879Z,9.57
2018-03-26T21:22:34.578Z,9.76
2018-03-26T21:25:02.900Z,9.93
2018-03-26T21:27:32.107Z,10.00
2018-03-26T21:30:00.524Z,10.13
2018-03-26T21:32:29.018Z,10.20
2018-03-26T21:34:57.537Z,10.27
2018-03-26T21:37:27.937Z,10.35
2018-03-26T21:39:57.373Z,10.42
2018-03-26T21:42:25.786Z,10.42
2018-03-26T21:44:54.266Z,10.51
2018-03-26T21:47:22.966Z,10.59
2018-03-26T21:49:51.384Z,10.66
2018-03-26T21:52:20.735Z,10.65
2018-03-26T21:54:49.390Z,10.63
2018-03-26T21:57:18.030Z,10.57
2018-03-26T21:59:46.311Z,10.55
2018-03-26T22:02:14.676Z,10.46
2018-03-26T22:04:43.187Z,10.50
2018-03-26T22:07:11.698Z,10.43
2018-03-26T22:09:41.921Z,10.45
2018-03-26T22:12:10.346Z,10.44
2018-03-26T22:14:38.736Z,10.42
2018-03-26T22:17:07.148Z,10.38
2018-03-26T22:19:35.588Z,10.36
2018-03-26T22:22:04.163Z,10.34
2018-03-26T22:24:32.796Z,10.20
2018-03-26T22:27:01.083Z,10.12
2018-03-26T22:29:29.747Z,10.08
2018-03-26T22:31:59.018Z,10.00
2018-03-26T22:34:27.431Z,9.81
2018-03-26T22:36:56.557Z,9.75
2018-03-26T22:39:25.027Z,9.75
2018-03-26T22:41:55.211Z,9.78
2018-03-26T22:44:25.440Z,9.75
2018-03-26T22:46:53.991Z,9.75
2018-03-26T22:49:22.246Z,9.69
2018-03-26T22:51:50.641Z,9.47
2018-03-26T22:54:19.064Z,9.22
2018-03-26T22:56:47.360Z,9.20
2018-03-26T22:59:15.734Z,9.31
2018-03-26T23:01:44.088Z,9.39
2018-03-26T23:04:13.273Z,9.38
2018-03-26T23:06:41.554Z,9.36
2018-03-26T23:09:10.672Z,9.30
2018-03-26T23:11:40.848Z,9.17
2018-03-26T23:14:09.223Z,8.95
2018-03-26T23:16:37.518Z,8.97
2018-03-26T23:19:05.828Z,9.07
2018-03-26T23:21:34.303Z,9.21
2018-03-26T23:24:02.598Z,9.35
2018-03-26T23:26:31.161Z,9.31
2018-03-26T23:28:59.579Z,9.31
2018-03-26T23:31:27.918Z,9.27
2018-03-26T23:33:57.141Z,9.26
2018-03-26T23:36:25.535Z,9.23
2018-03-26T23:38:53.991Z,9.31
2018-03-26T23:41:23.732Z,9.30
2018-03-26T23:43:52.028Z,9.31
2018-03-26T23:46:21.141Z,9.34
2018-03-26T23:48:50.238Z,9.29
2018-03-26T23:51:19.364Z,9.30
2018-03-26T23:53:48.084Z,9.21
2018-03-26T23:56:16.366Z,8.82
2018-03-26T23:58:44.904Z,8.60
